Terminal Aerodrome Forecast
Issued by NWS Upton, NY

Home | Current Version | Previous Version | Text Only | Print | Product List | Glossary On
Versions: 1 2 3 4 5 6 7 8 9 10 11 12 13 14 15 16 17 18 19 20 21 22 23 24 25 26 27 28 29 30 31 32
000
FTUS41 KOKX 020500
TAFEWR
TAF
KEWR 020536Z 0206/0312 21005KT P6SM SCT070
     FM020800 23004KT P6SM SCT050 SCT150
      TEMPO 0209/0212 6SM BR SCT020
     FM021400 25007KT P6SM SCT060
     FM021800 23011G17KT P6SM SCT050
     FM030000 25007KT P6SM SCT050 BKN150 PROB30 0302/0307 SHRA
      BKN050
     FM030900 31006KT P6SM SCT150=

USA.gov is the U.S. government's official web portal to all federal, state and local government web resources and services.